createdAt,value
2022-10-06T00:02:03.911Z,27.40
2022-10-06T00:05:06.368Z,24.50
2022-10-06T00:08:10.268Z,26.00
2022-10-06T00:11:13.836Z,25.20
2022-10-06T00:14:15.651Z,25.50
2022-10-06T00:17:17.574Z,29.70
2022-10-06T00:20:20.173Z,25.50
2022-10-06T00:23:22.027Z,24.80
2022-10-06T00:26:24.431Z,27.20
2022-10-06T00:29:26.484Z,24.20
2022-10-06T00:32:28.186Z,25.10
2022-10-06T00:35:33.901Z,25.80
2022-10-06T00:38:35.949Z,24.70
2022-10-06T00:41:39.379Z,22.80
2022-10-06T00:44:41.716Z,24.60
2022-10-06T00:47:43.503Z,22.70
2022-10-06T00:50:46.057Z,26.70
2022-10-06T00:53:48.974Z,27.30
2022-10-06T00:56:51.084Z,20.00
2022-10-06T00:59:53.670Z,22.10
2022-10-06T01:03:07.708Z,21.80
2022-10-06T01:06:09.893Z,23.60
2022-10-06T01:09:13.897Z,23.90
2022-10-06T01:12:16.862Z,24.30
2022-10-06T01:15:20.074Z,146.00
2022-10-06T01:18:23.001Z,22.10
2022-10-06T01:21:32.803Z,21.20
2022-10-06T01:24:35.054Z,28.50
2022-10-06T01:27:38.435Z,34.00
2022-10-06T01:30:53.061Z,24.70
2022-10-06T01:33:55.858Z,31.30
2022-10-06T01:36:57.638Z,24.20
2022-10-06T01:39:59.416Z,30.10
2022-10-06T01:46:03.035Z,32.80
2022-10-06T01:49:04.897Z,39.40
2022-10-06T01:52:06.909Z,29.10
2022-10-06T01:55:09.240Z,38.20
2022-10-06T01:58:11.773Z,33.90
2022-10-06T02:01:13.811Z,47.80
2022-10-06T02:04:16.424Z,42.50
2022-10-06T02:07:19.172Z,30.10
2022-10-06T02:10:21.104Z,35.70
2022-10-06T02:13:28.113Z,32.40
2022-10-06T02:16:31.609Z,28.90
2022-10-06T02:19:33.339Z,29.60
2022-10-06T02:22:39.868Z,33.80
2022-10-06T02:25:41.640Z,35.70
2022-10-06T02:31:47.128Z,42.00
2022-10-06T02:34:49.958Z,40.00
2022-10-06T02:37:51.651Z,45.30
2022-10-06T02:40:57.745Z,48.10
2022-10-06T02:43:59.614Z,40.00
2022-10-06T02:47:01.349Z,34.50
2022-10-06T02:50:06.253Z,30.40
2022-10-06T02:53:12.648Z,25.90
2022-10-06T02:56:17.430Z,26.90
2022-10-06T02:59:19.263Z,24.90
2022-10-06T03:02:21.137Z,30.40
2022-10-06T03:05:23.306Z,26.20
2022-10-06T03:11:33.171Z,28.50
2022-10-06T03:14:35.173Z,23.80
2022-10-06T03:17:36.906Z,27.20
2022-10-06T03:20:38.823Z,27.10
2022-10-06T03:23:42.634Z,26.20
2022-10-06T03:26:47.765Z,30.10
2022-10-06T03:29:49.776Z,36.90
2022-10-06T03:32:52.662Z,39.60
2022-10-06T03:36:07.179Z,48.10
2022-10-06T03:39:09.173Z,40.10
2022-10-06T03:42:10.985Z,36.30
2022-10-06T03:45:12.971Z,28.40
2022-10-06T03:48:14.772Z,30.20
2022-10-06T03:54:29.195Z,24.60
2022-10-06T03:57:31.097Z,28.10
2022-10-06T04:00:32.936Z,25.60
2022-10-06T04:03:35.114Z,30.10
2022-10-06T04:06:39.171Z,32.50
2022-10-06T04:09:41.189Z,28.40
2022-10-06T04:12:43.003Z,32.10
2022-10-06T04:15:46.105Z,33.70
2022-10-06T04:18:54.020Z,36.40
2022-10-06T04:21:56.214Z,37.00
2022-10-06T04:24:58.030Z,38.00
2022-10-06T04:28:00.286Z,36.10
2022-10-06T04:31:02.223Z,37.30
2022-10-06T04:34:06.019Z,34.40
2022-10-06T04:37:07.785Z,28.80
2022-10-06T04:40:09.995Z,31.20
2022-10-06T04:43:14.930Z,32.00
2022-10-06T04:46:41.423Z,31.80
2022-10-06T04:49:39.759Z,29.70
2022-10-06T04:52:41.593Z,31.50
2022-10-06T04:55:43.298Z,32.60
2022-10-06T05:01:48.206Z,37.90
2022-10-06T05:04:50.026Z,34.80
2022-10-06T05:07:51.782Z,33.00
2022-10-06T05:11:00.482Z,33.60
2022-10-06T05:14:02.641Z,27.70
2022-10-06T05:17:04.437Z,26.90
2022-10-06T05:20:06.783Z,27.30
2022-10-06T05:23:08.596Z,24.00
2022-10-06T05:26:15.819Z,30.20
2022-10-06T05:29:17.599Z,29.90
2022-10-06T05:32:19.415Z,29.20
2022-10-06T05:35:21.701Z,29.20
2022-10-06T05:38:24.330Z,33.40
2022-10-06T05:41:29.010Z,29.00
2022-10-06T05:44:30.830Z,30.50
2022-10-06T05:47:32.699Z,24.80
2022-10-06T05:50:34.506Z,22.00
2022-10-06T05:53:37.199Z,23.90
2022-10-06T05:56:39.221Z,24.40
2022-10-06T05:59:41.138Z,23.40
2022-10-06T06:02:43.364Z,21.00
2022-10-06T06:05:46.002Z,21.20
2022-10-06T06:08:49.135Z,24.30
2022-10-06T06:11:53.176Z,26.80
2022-10-06T06:15:13.325Z,27.30
2022-10-06T06:18:15.090Z,28.60
2022-10-06T06:21:17.141Z,29.80
2022-10-06T06:24:19.017Z,30.60
2022-10-06T06:27:21.137Z,24.20
2022-10-06T06:30:24.030Z,29.10
2022-10-06T06:33:25.842Z,29.40
2022-10-06T06:36:32.079Z,28.10
2022-10-06T06:39:34.068Z,31.30
2022-10-06T06:42:35.840Z,34.40
2022-10-06T06:45:37.705Z,33.00
2022-10-06T06:48:39.664Z,30.50
2022-10-06T06:51:43.573Z,30.60
2022-10-06T06:54:46.358Z,31.10
2022-10-06T06:57:49.724Z,30.50
2022-10-06T07:00:51.786Z,28.30
2022-10-06T07:03:58.307Z,30.10
2022-10-06T07:07:00.906Z,35.10
2022-10-06T07:10:02.761Z,28.80
2022-10-06T07:13:06.303Z,29.60
2022-10-06T07:16:31.297Z,26.40
2022-10-06T07:19:51.297Z,27.00
2022-10-06T07:23:12.141Z,27.30
2022-10-06T07:26:13.955Z,25.90
2022-10-06T07:29:15.791Z,23.90
2022-10-06T07:32:21.433Z,27.40
2022-10-06T07:35:24.543Z,28.80
2022-10-06T07:38:27.684Z,29.70
2022-10-06T07:41:31.157Z,31.30
2022-10-06T07:44:32.913Z,32.20
2022-10-06T07:47:38.277Z,31.00
2022-10-06T07:50:41.428Z,31.30
2022-10-06T07:53:53.702Z,27.20
2022-10-06T07:56:56.009Z,27.70
2022-10-06T08:00:02.090Z,27.80
2022-10-06T08:03:05.259Z,25.70
2022-10-06T08:06:12.622Z,26.10
2022-10-06T08:09:14.605Z,25.70
2022-10-06T08:12:34.894Z,24.10
2022-10-06T08:15:36.932Z,23.60
2022-10-06T08:18:46.551Z,25.60
2022-10-06T08:21:48.912Z,25.20
2022-10-06T08:25:05.366Z,28.60
2022-10-06T08:28:08.698Z,28.60
2022-10-06T08:31:15.773Z,29.10
2022-10-06T08:34:18.464Z,30.90
2022-10-06T08:37:27.496Z,30.10
2022-10-06T08:40:29.647Z,27.00
2022-10-06T08:43:32.648Z,22.90
2022-10-06T08:46:40.639Z,19.70
2022-10-06T08:49:46.062Z,19.30
2022-10-06T08:52:59.771Z,23.30
2022-10-06T08:56:18.156Z,21.10
2022-10-06T08:59:20.611Z,23.80
2022-10-06T09:02:32.534Z,20.80
2022-10-06T09:05:35.128Z,23.30
2022-10-06T09:08:43.826Z,22.70
2022-10-06T09:12:04.360Z,21.10
2022-10-06T09:15:15.064Z,23.00
2022-10-06T09:18:23.162Z,22.50
2022-10-06T09:21:35.415Z,23.10
2022-10-06T09:24:47.227Z,23.60
2022-10-06T09:27:55.527Z,23.90
2022-10-06T09:31:01.653Z,25.10
2022-10-06T09:34:21.839Z,26.80
2022-10-06T09:37:24.020Z,27.50
2022-10-06T09:40:54.373Z,24.00
2022-10-06T09:44:02.605Z,22.80
2022-10-06T09:47:23.774Z,23.60
2022-10-06T09:50:27.800Z,24.60
2022-10-06T09:53:30.877Z,21.80
2022-10-06T09:56:36.437Z,22.10
2022-10-06T09:59:43.061Z,25.90
2022-10-06T10:02:45.192Z,21.50
2022-10-06T10:05:51.703Z,23.10
2022-10-06T10:09:24.874Z,20.30
2022-10-06T10:12:30.981Z,22.30
2022-10-06T10:15:54.312Z,20.10
2022-10-06T10:18:56.187Z,21.20
2022-10-06T10:21:58.075Z,22.30
2022-10-06T10:25:14.058Z,22.40
2022-10-06T10:28:38.224Z,20.60
2022-10-06T10:31:50.289Z,19.30
2022-10-06T10:35:06.503Z,24.20
2022-10-06T10:38:20.964Z,22.30
2022-10-06T10:41:30.088Z,18.70
2022-10-06T10:44:35.345Z,18.50
2022-10-06T10:47:39.157Z,19.50
2022-10-06T10:50:46.759Z,20.00
2022-10-06T10:53:52.642Z,18.00
2022-10-06T10:56:54.540Z,17.60
2022-10-06T11:00:00.949Z,24.40
2022-10-06T11:03:02.942Z,20.20
2022-10-06T11:06:25.076Z,21.50
2022-10-06T11:10:04.930Z,17.70
2022-10-06T11:13:22.340Z,19.70
2022-10-06T11:16:27.251Z,17.30
2022-10-06T11:19:42.133Z,17.00
2022-10-06T11:22:50.687Z,16.90
2022-10-06T11:25:56.847Z,21.60
2022-10-06T11:29:15.986Z,17.50
2022-10-06T11:32:29.845Z,21.60
2022-10-06T11:35:41.381Z,18.50
2022-10-06T11:38:49.941Z,15.10
2022-10-06T11:42:03.579Z,22.10
2022-10-06T11:45:14.006Z,15.60
2022-10-06T11:51:26.433Z,18.60
2022-10-06T11:54:40.481Z,16.60
2022-10-06T11:58:23.524Z,17.30
2022-10-06T12:01:28.271Z,16.00
2022-10-06T12:04:30.430Z,14.30
2022-10-06T12:07:52.422Z,15.50
2022-10-06T12:10:55.199Z,15.20
2022-10-06T12:15:31.794Z,17.80
2022-10-06T12:17:25.967Z,18.20
2022-10-06T12:20:37.103Z,19.20
2022-10-06T12:24:02.416Z,16.20
2022-10-06T12:27:29.515Z,15.50
2022-10-06T12:30:34.225Z,15.20
2022-10-06T12:33:39.028Z,17.00
2022-10-06T12:36:44.871Z,19.10
2022-10-06T12:39:46.935Z,17.40
2022-10-06T12:42:48.763Z,17.40
2022-10-06T12:45:56.848Z,20.10
2022-10-06T12:49:05.084Z,17.30
2022-10-06T12:52:39.436Z,16.40
2022-10-06T12:55:48.245Z,16.80
2022-10-06T12:58:50.147Z,15.70
2022-10-06T13:01:55.404Z,19.50
2022-10-06T13:05:11.013Z,18.40
2022-10-06T13:08:34.362Z,18.50
2022-10-06T13:11:36.343Z,23.20
2022-10-06T13:14:38.174Z,17.20
2022-10-06T13:17:46.823Z,20.40
2022-10-06T13:20:51.735Z,21.30
2022-10-06T13:23:53.492Z,18.60
2022-10-06T13:26:56.400Z,21.30
2022-10-06T13:30:21.335Z,21.70
2022-10-06T13:33:24.287Z,19.40
2022-10-06T13:36:28.260Z,20.20
2022-10-06T13:39:32.998Z,19.40
2022-10-06T13:42:35.030Z,21.30
2022-10-06T13:45:41.927Z,21.00
2022-10-06T13:48:50.053Z,17.90
2022-10-06T13:52:01.181Z,17.80
2022-10-06T13:55:04.858Z,18.50
2022-10-06T13:58:10.280Z,18.80
2022-10-06T14:01:12.247Z,21.00
2022-10-06T14:04:14.735Z,22.10
2022-10-06T14:07:17.179Z,17.20
2022-10-06T14:10:21.219Z,18.30
2022-10-06T14:13:24.144Z,19.20
2022-10-06T14:16:26.916Z,18.70
2022-10-06T14:19:37.458Z,18.90
2022-10-06T14:22:39.370Z,17.90
2022-10-06T14:25:41.111Z,19.30
2022-10-06T14:28:53.124Z,19.50
2022-10-06T14:31:54.910Z,19.20
2022-10-06T14:34:56.770Z,21.00
2022-10-06T14:37:59.139Z,19.20
2022-10-06T14:41:03.159Z,21.90
2022-10-06T14:44:11.564Z,22.40
2022-10-06T14:47:13.346Z,17.50
2022-10-06T14:50:15.644Z,18.00
2022-10-06T14:53:17.822Z,17.60
2022-10-06T14:56:20.266Z,16.20
2022-10-06T14:59:22.278Z,16.30
2022-10-06T15:02:24.143Z,15.80
2022-10-06T15:05:26.058Z,21.10
2022-10-06T15:08:28.216Z,19.20
2022-10-06T15:11:30.458Z,20.60
2022-10-06T15:14:33.680Z,18.80
2022-10-06T15:17:35.910Z,22.00
2022-10-06T15:20:38.397Z,17.00
2022-10-06T15:23:40.197Z,20.90
2022-10-06T15:27:01.409Z,23.30
2022-10-06T15:30:03.508Z,23.00
2022-10-06T15:33:06.214Z,20.20
2022-10-06T15:36:16.978Z,19.70
2022-10-06T15:39:21.165Z,23.90
2022-10-06T15:42:24.863Z,29.70
2022-10-06T15:45:26.709Z,21.10
2022-10-06T15:48:28.471Z,24.90
2022-10-06T15:51:34.347Z,24.60
2022-10-06T15:54:40.911Z,23.90
2022-10-06T15:57:42.625Z,21.10
2022-10-06T16:00:44.471Z,27.60
2022-10-06T16:03:46.493Z,24.40
2022-10-06T16:06:54.558Z,21.90
2022-10-06T16:09:56.386Z,20.60
2022-10-06T16:12:58.309Z,23.60
2022-10-06T16:16:00.546Z,22.10
2022-10-06T16:19:02.491Z,23.80
2022-10-06T16:22:06.171Z,34.20
2022-10-06T16:25:08.240Z,44.20
2022-10-06T16:28:10.306Z,47.50
2022-10-06T16:31:12.268Z,39.90
2022-10-06T16:34:14.277Z,60.60
2022-10-06T16:37:16.234Z,57.50
2022-10-06T16:40:18.113Z,67.00
2022-10-06T16:43:19.835Z,52.80
2022-10-06T16:46:27.928Z,38.00
2022-10-06T16:49:29.705Z,32.50
2022-10-06T16:52:31.596Z,31.90
2022-10-06T16:55:33.287Z,26.70
2022-10-06T16:58:45.551Z,27.20
2022-10-06T17:01:48.409Z,27.90
2022-10-06T17:04:50.516Z,26.90
2022-10-06T17:07:56.930Z,27.70
2022-10-06T17:11:10.702Z,25.20
2022-10-06T17:14:13.005Z,23.60
2022-10-06T17:17:14.883Z,27.60
2022-10-06T17:20:16.830Z,28.70
2022-10-06T17:23:18.629Z,30.50
2022-10-06T17:26:22.429Z,27.80
2022-10-06T17:29:24.538Z,30.20
2022-10-06T17:32:26.279Z,28.80
2022-10-06T17:35:28.187Z,30.20
2022-10-06T17:38:31.850Z,28.90
2022-10-06T17:41:37.378Z,25.60
2022-10-06T17:44:39.490Z,29.10
2022-10-06T17:47:41.686Z,30.00
2022-10-06T17:50:43.439Z,29.30
2022-10-06T17:53:49.223Z,27.70
2022-10-06T17:56:53.267Z,28.10
2022-10-06T17:59:59.096Z,27.90
2022-10-06T18:03:00.869Z,27.90
2022-10-06T18:06:03.895Z,24.20
2022-10-06T18:09:06.892Z,26.20
2022-10-06T18:12:10.605Z,26.10
2022-10-06T18:15:12.438Z,28.40
2022-10-06T18:18:14.382Z,23.20
2022-10-06T18:21:17.405Z,23.60
2022-10-06T18:24:21.712Z,23.80
2022-10-06T18:27:24.339Z,25.10
2022-10-06T18:30:29.388Z,49.00
2022-10-06T18:36:53.222Z,49.20
2022-10-06T18:39:55.360Z,46.40
2022-10-06T18:42:57.083Z,38.70
2022-10-06T18:46:22.534Z,46.50
2022-10-06T18:49:25.493Z,34.20
2022-10-06T18:52:27.467Z,39.80
2022-10-06T18:55:29.973Z,38.40
2022-10-06T18:58:32.368Z,30.30
2022-10-06T19:01:35.163Z,33.90
2022-10-06T19:04:37.325Z,32.50
2022-10-06T19:07:39.178Z,36.10
2022-10-06T19:11:01.000Z,38.10
2022-10-06T19:14:02.780Z,42.40
2022-10-06T19:17:07.265Z,54.80
2022-10-06T19:20:10.969Z,50.10
2022-10-06T19:23:15.059Z,48.90
2022-10-06T19:26:16.906Z,45.80
2022-10-06T19:29:23.934Z,47.70
2022-10-06T19:32:28.531Z,51.60
2022-10-06T19:35:30.550Z,48.40
2022-10-06T19:38:32.754Z,43.80
2022-10-06T19:41:56.995Z,41.10
2022-10-06T19:44:58.928Z,38.90
2022-10-06T19:48:00.868Z,37.10
2022-10-06T19:51:14.428Z,38.20
2022-10-06T19:54:18.414Z,33.60
2022-10-06T19:57:20.252Z,36.80
2022-10-06T20:00:22.001Z,40.20
2022-10-06T20:03:51.821Z,39.80
2022-10-06T20:06:53.900Z,38.60
2022-10-06T20:09:55.903Z,38.50
2022-10-06T20:12:58.783Z,36.40
2022-10-06T20:16:02.027Z,35.90
2022-10-06T20:19:05.607Z,33.20
2022-10-06T20:22:07.496Z,35.50
2022-10-06T20:25:09.575Z,34.70
2022-10-06T20:28:11.437Z,37.50
2022-10-06T20:31:28.310Z,35.10
2022-10-06T20:34:32.314Z,32.60
2022-10-06T20:37:34.312Z,36.00
2022-10-06T20:40:49.262Z,36.80
2022-10-06T20:43:54.052Z,37.10
2022-10-06T20:46:55.809Z,39.70
2022-10-06T20:49:57.515Z,40.30
2022-10-06T20:52:59.355Z,38.60
2022-10-06T20:56:01.743Z,36.90
2022-10-06T20:59:07.778Z,37.20
2022-10-06T21:02:09.901Z,35.10
2022-10-06T21:05:11.956Z,36.90
2022-10-06T21:08:13.668Z,35.50
2022-10-06T21:11:17.503Z,36.20
2022-10-06T21:14:20.053Z,36.00
2022-10-06T21:17:21.941Z,34.70
2022-10-06T21:20:23.679Z,34.60
2022-10-06T21:23:25.554Z,35.10
2022-10-06T21:26:27.945Z,31.60
2022-10-06T21:29:29.604Z,33.40
2022-10-06T21:32:32.223Z,33.10
2022-10-06T21:35:33.970Z,35.70
2022-10-06T21:38:41.914Z,33.70
2022-10-06T21:41:43.701Z,38.60
2022-10-06T21:44:45.469Z,37.90
2022-10-06T21:47:47.279Z,38.90
2022-10-06T21:50:55.195Z,41.70
2022-10-06T21:53:57.591Z,38.50
2022-10-06T21:56:59.353Z,36.90
2022-10-06T22:00:01.110Z,39.70
2022-10-06T22:03:02.909Z,39.10
2022-10-06T22:06:06.278Z,38.50
2022-10-06T22:09:09.617Z,35.90
2022-10-06T22:12:11.433Z,34.40
2022-10-06T22:15:13.174Z,37.00
2022-10-06T22:18:17.937Z,37.90
2022-10-06T22:21:28.488Z,37.90
2022-10-06T22:24:30.286Z,36.60
2022-10-06T22:27:32.440Z,32.40
2022-10-06T22:30:34.286Z,32.60
2022-10-06T22:33:38.157Z,34.80
2022-10-06T22:36:40.192Z,32.50
2022-10-06T22:39:42.024Z,39.60
2022-10-06T22:42:43.706Z,31.00
2022-10-06T22:45:45.618Z,34.70
2022-10-06T22:48:47.361Z,33.90
2022-10-06T22:51:49.161Z,33.40
2022-10-06T22:54:51.005Z,36.20
2022-10-06T22:57:52.690Z,33.90
2022-10-06T23:00:54.578Z,35.50
2022-10-06T23:03:57.088Z,33.70
2022-10-06T23:07:18.690Z,33.10
2022-10-06T23:10:21.581Z,35.40
2022-10-06T23:13:23.265Z,34.00
2022-10-06T23:16:25.342Z,33.80
2022-10-06T23:19:27.229Z,32.50
2022-10-06T23:22:29.023Z,34.80
2022-10-06T23:25:30.793Z,31.90
2022-10-06T23:28:32.700Z,33.40
2022-10-06T23:31:34.633Z,34.00
2022-10-06T23:34:37.229Z,34.60
2022-10-06T23:37:39.013Z,29.70
2022-10-06T23:40:40.718Z,33.10
2022-10-06T23:43:42.845Z,33.80
2022-10-06T23:46:44.935Z,30.00
2022-10-06T23:49:49.799Z,38.70
2022-10-06T23:52:51.516Z,34.20
2022-10-06T23:55:53.960Z,48.10
2022-10-06T23:58:55.605Z,172.00
